Time;durP1;ratioP1;P1;durP2;ratioP2;P2;SDS_P1;SDS_P2;PMS_P1;PMS_P2;Temp;Humidity;BMP_temperature;BMP_pressure;BME280_temperature;BME280_humidity;BME280_pressure;Samples;Min_cycle;Max_cycle;Signal;HPM_P1;HPM_P2
2022/06/10 00:00:38;;;;;;;6.55;2.70;;;17.40;99.90;;;;;;5031964;28;20102;-76
2022/06/10 00:03:05;;;;;;;10.73;3.28;;;17.40;99.90;;;;;;5013855;28;20029;-76
2022/06/10 00:05:31;;;;;;;11.45;3.50;;;17.30;99.90;;;;;;5016855;28;20056;-76
2022/06/10 00:07:58;;;;;;;8.02;3.13;;;17.20;99.90;;;;;;5033687;28;20508;-76
2022/06/10 00:10:26;;;;;;;9.48;2.95;;;17.10;99.90;;;;;;5037799;28;20021;-76
2022/06/10 00:12:52;;;;;;;10.43;3.25;;;17.00;99.90;;;;;;5018406;28;20113;-76
2022/06/10 00:15:18;;;;;;;5.82;2.97;;;17.00;99.90;;;;;;5024011;28;20478;-76
2022/06/10 00:17:45;;;;;;;7.55;2.38;;;16.90;99.90;;;;;;5006559;28;20033;-76
2022/06/10 00:20:14;;;;;;;12.73;3.58;;;16.80;99.90;;;;;;5021230;28;20068;-75
2022/06/10 00:22:40;;;;;;;5.10;2.88;;;16.80;99.90;;;;;;5025972;28;20060;-76
2022/06/10 00:25:07;;;;;;;12.30;3.00;;;16.70;99.90;;;;;;5023118;28;20022;-76
2022/06/10 00:27:33;;;;;;;9.32;3.00;;;16.60;99.90;;;;;;5010820;28;20021;-76
2022/06/10 00:29:59;;;;;;;12.48;3.45;;;16.60;99.90;;;;;;5026021;28;20028;-75
2022/06/10 00:32:25;;;;;;;9.18;3.25;;;16.60;99.90;;;;;;5012659;28;20140;-76
2022/06/10 00:34:51;;;;;;;14.52;3.78;;;16.50;99.90;;;;;;5029751;28;20025;-76
2022/06/10 00:37:17;;;;;;;7.75;2.67;;;16.50;99.90;;;;;;5031912;28;20143;-76
2022/06/10 00:39:43;;;;;;;11.52;3.08;;;16.40;99.90;;;;;;5015838;28;20136;-75
2022/06/10 00:42:12;;;;;;;12.07;3.13;;;16.40;99.90;;;;;;5016842;28;20025;-76
2022/06/10 00:44:39;;;;;;;9.05;2.92;;;16.30;99.90;;;;;;5036784;28;20052;-76
2022/06/10 00:47:20;;;;;;;11.02;2.90;;;16.20;99.90;;;;;;5020331;28;20029;-75
2022/06/10 00:49:55;;;;;;;8.82;2.80;;;16.10;99.90;;;;;;5021084;28;20437;-75
2022/06/10 00:52:28;;;;;;;9.20;3.00;;;16.10;99.90;;;;;;5021382;28;20084;-75
2022/06/10 00:54:55;;;;;;;12.88;3.30;;;16.00;99.90;;;;;;5025225;28;20485;-75
2022/06/10 00:57:27;;;;;;;6.20;2.70;;;15.90;99.90;;;;;;5024081;28;20058;-75
2022/06/10 01:00:08;;;;;;;13.43;4.32;;;15.90;99.90;;;;;;5010474;28;20025;-75
2022/06/10 01:02:35;;;;;;;7.07;3.00;;;15.90;99.90;;;;;;5009096;28;20028;-77
2022/06/10 01:05:05;;;;;;;8.20;3.47;;;15.90;99.90;;;;;;5019801;28;20022;-76
2022/06/10 01:07:35;;;;;;;6.43;2.80;;;15.90;99.90;;;;;;5036423;28;20018;-75
2022/06/10 01:10:06;;;;;;;11.73;4.18;;;15.90;99.90;;;;;;5005639;28;20394;-76
2022/06/10 01:13:00;;;;;;;6.43;3.05;;;15.80;99.90;;;;;;5015273;28;20048;-76
2022/06/10 01:15:59;;;;;;;12.07;3.30;;;15.70;99.90;;;;;;5035764;28;20025;-76
2022/06/10 01:18:37;;;;;;;9.05;3.92;;;15.70;99.90;;;;;;5017993;28;20076;-75
2022/06/10 01:21:48;;;;;;;9.00;3.33;;;15.60;99.90;;;;;;5032135;28;20399;-75
2022/06/10 01:24:22;;;;;;;7.95;3.83;;;15.60;99.90;;;;;;5022504;28;20035;-76
2022/06/10 01:30:14;;;;;;;11.18;4.25;;;15.50;99.90;;;;;;5022276;28;20061;-75
2022/06/10 01:33:06;;;;;;;9.30;4.40;;;15.50;99.90;;;;;;5023288;28;20025;-75
2022/06/10 01:35:46;;;;;;;15.10;4.25;;;15.50;99.90;;;;;;5034551;28;20033;-75
2022/06/10 01:38:44;;;;;;;11.15;4.18;;;15.40;99.90;;;;;;5016039;28;20088;-75
2022/06/10 01:41:29;;;;;;;12.10;5.05;;;15.40;99.90;;;;;;5030013;28;20033;-75
2022/06/10 01:44:02;;;;;;;15.13;4.85;;;15.40;99.90;;;;;;5033227;28;20151;-76
2022/06/10 01:46:35;;;;;;;10.20;4.43;;;15.30;99.90;;;;;;5031936;28;20568;-75
2022/06/10 01:49:10;;;;;;;8.82;4.50;;;15.30;99.90;;;;;;5035173;28;20049;-76
2022/06/10 01:51:39;;;;;;;13.75;4.70;;;15.30;99.90;;;;;;5015673;28;20041;-76
2022/06/10 01:54:13;;;;;;;16.30;4.93;;;15.30;99.90;;;;;;5016997;28;20026;-76
2022/06/10 01:56:46;;;;;;;9.30;4.40;;;15.20;99.90;;;;;;5034849;28;20088;-76
2022/06/10 01:59:15;;;;;;;9.60;4.30;;;15.10;99.90;;;;;;5034620;28;20071;-76
2022/06/10 02:01:46;;;;;;;9.80;4.80;;;15.10;99.90;;;;;;5016697;28;20029;-76
2022/06/10 02:04:28;;;;;;;9.45;4.03;;;15.00;99.90;;;;;;5013052;28;20018;-76
2022/06/10 02:07:03;;;;;;;8.05;3.83;;;14.90;99.90;;;;;;5014525;28;20109;-76
2022/06/10 02:09:37;;;;;;;9.75;4.28;;;14.90;99.90;;;;;;5026524;28;20025;-76
2022/06/10 02:12:12;;;;;;;8.85;4.75;;;14.80;99.90;;;;;;5003841;28;20026;-76
2022/06/10 02:14:50;;;;;;;13.38;4.07;;;14.80;99.90;;;;;;5009644;28;20036;-76
2022/06/10 02:17:19;;;;;;;8.02;3.63;;;14.70;99.90;;;;;;5012244;28;20121;-76
2022/06/10 02:19:56;;;;;;;12.45;4.15;;;14.70;99.90;;;;;;5030297;28;20029;-76
2022/06/10 02:22:29;;;;;;;10.23;4.18;;;14.60;99.90;;;;;;5016845;28;20026;-75
2022/06/10 02:25:17;;;;;;;10.43;4.15;;;14.50;99.90;;;;;;5031678;28;20033;-75
2022/06/10 02:27:47;;;;;;;11.48;4.40;;;14.50;99.90;;;;;;5033944;28;20025;-76
2022/06/10 02:30:35;;;;;;;8.73;4.78;;;14.40;99.90;;;;;;5035725;28;20081;-76
2022/06/10 02:33:02;;;;;;;11.65;4.30;;;14.40;99.90;;;;;;5039869;28;20025;-75
2022/06/10 02:35:39;;;;;;;8.65;4.20;;;14.40;99.90;;;;;;5037197;28;20514;-76
2022/06/10 02:38:13;;;;;;;8.95;3.95;;;14.30;99.90;;;;;;5021121;28;20049;-76
2022/06/10 02:40:52;;;;;;;5.47;3.88;;;14.30;99.90;;;;;;5006968;28;20029;-76
2022/06/10 02:43:31;;;;;;;7.43;4.18;;;14.20;99.90;;;;;;5006399;28;20075;-75
2022/06/10 02:46:16;;;;;;;9.25;4.38;;;14.20;99.90;;;;;;5025213;28;20093;-75
2022/06/10 02:49:03;;;;;;;6.78;4.03;;;14.10;99.90;;;;;;5012349;28;20049;-76
2022/06/10 02:51:30;;;;;;;15.52;4.95;;;14.10;99.90;;;;;;5010072;28;20038;-76
2022/06/10 02:53:59;;;;;;;8.23;4.40;;;14.10;99.90;;;;;;5032118;28;20505;-75
2022/06/10 02:56:28;;;;;;;9.00;4.10;;;14.00;99.90;;;;;;5030689;28;20643;-75
2022/06/10 03:02:04;;;;;;;11.75;3.80;;;14.00;99.90;;;;;;5036030;28;20064;-75
2022/06/10 03:04:36;;;;;;;6.57;3.90;;;13.90;99.90;;;;;;5036057;28;20053;-75
2022/06/10 03:07:26;;;;;;;10.23;4.50;;;13.90;99.90;;;;;;5039023;28;20052;-76
2022/06/10 03:10:08;;;;;;;10.05;4.47;;;13.90;99.90;;;;;;5022399;28;20025;-75
2022/06/10 03:12:50;;;;;;;7.28;4.22;;;13.80;99.90;;;;;;5024768;28;20022;-75
2022/06/10 03:15:42;;;;;;;11.50;4.40;;;13.80;99.90;;;;;;5027953;28;20080;-75
2022/06/10 03:18:21;;;;;;;7.65;4.50;;;13.70;99.90;;;;;;5007126;28;20042;-76
2022/06/10 03:21:06;;;;;;;6.85;4.00;;;13.80;99.90;;;;;;5022947;28;20057;-75
2022/06/10 03:23:53;;;;;;;10.60;4.65;;;13.70;99.90;;;;;;5027119;28;20026;-75
2022/06/10 03:26:25;;;;;;;13.93;5.15;;;13.70;99.90;;;;;;5028230;28;20028;-75
2022/06/10 03:29:05;;;;;;;11.70;5.03;;;13.70;99.90;;;;;;5031990;28;20144;-75
2022/06/10 03:31:45;;;;;;;7.82;4.35;;;13.70;99.90;;;;;;5017155;28;20026;-75
2022/06/10 03:34:17;;;;;;;7.35;4.25;;;13.70;99.90;;;;;;5006581;28;20029;-75
2022/06/10 03:36:44;;;;;;;4.70;4.07;;;13.60;99.90;;;;;;5035302;28;20049;-75
2022/06/10 03:39:10;;;;;;;11.98;4.93;;;13.60;99.90;;;;;;5018534;28;20104;-74
2022/06/10 03:41:53;;;;;;;10.85;4.45;;;13.60;99.90;;;;;;5035400;28;20484;-75
2022/06/10 03:44:20;;;;;;;11.50;4.82;;;13.50;99.90;;;;;;5016054;28;20026;-75
2022/06/10 03:46:49;;;;;;;12.77;4.55;;;13.50;99.90;;;;;;5035686;28;20022;-75
2022/06/10 03:49:19;;;;;;;8.73;4.85;;;13.50;99.90;;;;;;5034728;28;20053;-75
2022/06/10 03:51:46;;;;;;;13.73;5.13;;;13.40;99.90;;;;;;5016985;28;20393;-75
2022/06/10 03:54:18;;;;;;;7.43;4.70;;;13.40;99.90;;;;;;5033997;28;20025;-75
2022/06/10 03:56:44;;;;;;;13.23;5.45;;;13.40;99.90;;;;;;5034178;28;20017;-75
2022/06/10 03:59:10;;;;;;;9.93;4.68;;;13.40;99.90;;;;;;5035274;28;20037;-75
2022/06/10 04:01:37;;;;;;;9.88;5.10;;;13.40;99.90;;;;;;5036242;28;20033;-75
2022/06/10 04:04:03;;;;;;;7.45;4.85;;;13.40;99.90;;;;;;5019279;28;20054;-75
2022/06/10 04:06:29;;;;;;;10.38;4.00;;;13.30;99.90;;;;;;5034268;28;20014;-76
2022/06/10 04:08:55;;;;;;;8.30;4.60;;;13.30;99.90;;;;;;5018115;28;20025;-75
2022/06/10 04:11:21;;;;;;;6.85;3.38;;;13.30;99.90;;;;;;5038220;28;20021;-75
2022/06/10 04:13:47;;;;;;;11.05;4.47;;;13.30;99.90;;;;;;5014966;28;20021;-76
2022/06/10 04:16:13;;;;;;;9.05;4.35;;;13.30;99.90;;;;;;5036232;28;20057;-75
2022/06/10 04:18:39;;;;;;;8.38;4.25;;;13.30;99.90;;;;;;5034243;28;20053;-76
2022/06/10 04:21:05;;;;;;;12.27;4.53;;;13.30;99.90;;;;;;5035704;28;20022;-75
2022/06/10 04:23:32;;;;;;;6.18;4.53;;;13.30;99.90;;;;;;5035510;28;20387;-75
2022/06/10 04:25:59;;;;;;;7.63;4.53;;;13.40;99.90;;;;;;5018556;28;20018;-76
2022/06/10 04:28:24;;;;;;;11.50;5.00;;;13.30;99.90;;;;;;5016543;28;20029;-76
2022/06/10 04:30:51;;;;;;;10.98;5.28;;;13.30;99.90;;;;;;5037803;28;20075;-76
2022/06/10 04:33:21;;;;;;;8.93;4.90;;;13.30;99.90;;;;;;5033723;28;20021;-75
2022/06/10 04:35:49;;;;;;;10.85;4.63;;;13.30;99.90;;;;;;5024667;28;20021;-75
2022/06/10 04:38:18;;;;;;;9.80;4.72;;;13.40;99.90;;;;;;5016221;28;20034;-76
2022/06/10 04:40:45;;;;;;;13.40;5.05;;;13.40;99.90;;;;;;5013455;28;20032;-76
2022/06/10 04:43:11;;;;;;;7.07;4.72;;;13.40;99.90;;;;;;5035467;28;20100;-76
2022/06/10 04:45:46;;;;;;;12.70;4.60;;;13.50;99.90;;;;;;5025210;28;20049;-75
2022/06/10 04:48:14;;;;;;;8.23;4.57;;;13.50;99.90;;;;;;5033568;28;20049;-75
2022/06/10 04:50:40;;;;;;;9.25;4.00;;;13.60;99.90;;;;;;5017164;28;20025;-75
2022/06/10 04:53:07;;;;;;;8.13;4.68;;;13.60;99.90;;;;;;5015313;28;20025;-75
2022/06/10 04:55:33;;;;;;;10.57;4.88;;;13.60;99.90;;;;;;5031325;28;20061;-75
2022/06/10 04:57:59;;;;;;;13.07;4.45;;;13.70;99.90;;;;;;5030121;28;20029;-76
2022/06/10 05:00:29;;;;;;;11.18;4.40;;;13.70;99.90;;;;;;5033232;28;20105;-75
2022/06/10 05:02:55;;;;;;;6.80;4.45;;;13.80;99.90;;;;;;5035266;28;20725;-76
2022/06/10 05:05:22;;;;;;;6.28;4.53;;;13.90;99.90;;;;;;5017606;28;20025;-75
2022/06/10 05:07:48;;;;;;;13.50;4.97;;;14.00;99.90;;;;;;5034592;28;20033;-76
2022/06/10 05:10:15;;;;;;;7.30;4.88;;;14.00;99.90;;;;;;5014545;28;20034;-76
2022/06/10 05:12:44;;;;;;;8.77;4.80;;;14.10;99.90;;;;;;5029084;28;20022;-76
2022/06/10 05:15:12;;;;;;;9.70;4.82;;;14.20;99.90;;;;;;5032143;28;20018;-76
2022/06/10 05:17:38;;;;;;;8.52;5.00;;;14.30;99.90;;;;;;5031301;28;20390;-76
2022/06/10 05:20:04;;;;;;;12.20;4.93;;;14.40;99.90;;;;;;5032979;28;20017;-76
2022/06/10 05:22:30;;;;;;;6.45;4.28;;;14.40;99.90;;;;;;5035869;28;20029;-76
2022/06/10 05:24:56;;;;;;;11.13;4.65;;;14.60;99.90;;;;;;5032452;28;20600;-76
2022/06/10 05:27:22;;;;;;;11.57;4.43;;;14.60;99.90;;;;;;5033549;28;20510;-76
2022/06/10 05:29:48;;;;;;;12.40;4.63;;;14.80;99.90;;;;;;5016903;28;20426;-76
2022/06/10 05:32:13;;;;;;;14.85;4.85;;;14.90;99.90;;;;;;5015425;28;20029;-76
2022/06/10 05:34:48;;;;;;;13.35;4.60;;;15.00;99.90;;;;;;5036980;28;20021;-76
2022/06/10 05:37:20;;;;;;;9.30;4.18;;;15.10;99.90;;;;;;5033266;28;20030;-76
2022/06/10 05:39:46;;;;;;;10.55;4.72;;;15.20;99.90;;;;;;5027884;28;20018;-76
2022/06/10 05:42:12;;;;;;;8.40;4.50;;;15.30;99.90;;;;;;5010626;28;20544;-76
2022/06/10 05:44:46;;;;;;;9.68;4.50;;;15.40;99.90;;;;;;5013273;28;20105;-76
2022/06/10 05:47:18;;;;;;;8.98;4.05;;;15.50;99.90;;;;;;5037018;28;20099;-76
2022/06/10 05:49:45;;;;;;;9.35;4.32;;;15.70;99.90;;;;;;5013815;28;20071;-76
2022/06/10 05:52:14;;;;;;;7.70;4.43;;;15.80;99.90;;;;;;5015829;28;20083;-76
2022/06/10 05:54:43;;;;;;;6.85;4.32;;;15.90;99.90;;;;;;5034136;28;20029;-76
2022/06/10 05:57:09;;;;;;;11.57;4.53;;;16.00;99.90;;;;;;5034494;28;20028;-77
2022/06/10 05:59:35;;;;;;;9.00;3.97;;;16.10;99.90;;;;;;5034418;28;20020;-77
2022/06/10 06:02:07;;;;;;;6.43;3.88;;;16.10;99.90;;;;;;5035302;28;20030;-76
2022/06/10 06:04:33;;;;;;;8.57;4.85;;;16.20;99.90;;;;;;5035958;28;20452;-77
2022/06/10 06:06:59;;;;;;;7.28;4.13;;;16.30;99.90;;;;;;5037998;28;20021;-77
2022/06/10 06:09:26;;;;;;;7.82;4.80;;;16.40;99.90;;;;;;5037257;28;20047;-76
2022/06/10 06:11:56;;;;;;;10.60;5.45;;;16.50;99.90;;;;;;5027941;28;20089;-76
2022/06/10 06:14:22;;;;;;;15.55;5.93;;;16.60;99.90;;;;;;5038702;28;20128;-77
2022/06/10 06:16:59;;;;;;;8.73;4.97;;;16.70;99.90;;;;;;5036386;28;20030;-76
2022/06/10 06:19:27;;;;;;;9.90;4.72;;;16.80;99.90;;;;;;5038147;28;20027;-76
2022/06/10 06:21:53;;;;;;;20.17;5.25;;;17.00;99.90;;;;;;5036434;28;20490;-76
2022/06/10 06:24:19;;;;;;;12.75;4.72;;;17.10;99.90;;;;;;5037749;28;20017;-76
2022/06/10 06:26:45;;;;;;;13.88;4.68;;;17.20;99.90;;;;;;5036125;28;20475;-76
2022/06/10 06:29:12;;;;;;;9.38;4.50;;;17.30;99.90;;;;;;5039228;28;20044;-76
2022/06/10 06:31:38;;;;;;;13.32;4.32;;;17.40;99.90;;;;;;5036004;28;20021;-76
2022/06/10 06:34:05;;;;;;;18.20;5.40;;;17.50;99.90;;;;;;5037923;28;20393;-76
2022/06/10 06:36:42;;;;;;;9.93;3.97;;;17.60;99.90;;;;;;5038125;28;20021;-76
2022/06/10 06:39:09;;;;;;;9.63;4.47;;;17.60;99.90;;;;;;5039296;28;20100;-76
2022/06/10 06:41:35;;;;;;;12.20;4.28;;;17.70;99.90;;;;;;5038068;28;20029;-76
2022/06/10 06:44:04;;;;;;;13.80;4.20;;;17.80;99.90;;;;;;5040190;28;20024;-75
2022/06/10 06:46:32;;;;;;;12.18;4.32;;;17.90;99.90;;;;;;5039593;28;20030;-77
2022/06/10 06:48:59;;;;;;;10.73;4.25;;;18.00;99.90;;;;;;5027004;28;20372;-76
2022/06/10 06:51:26;;;;;;;7.35;3.65;;;18.10;99.90;;;;;;5035716;28;20109;-74
2022/06/10 06:53:51;;;;;;;6.78;3.67;;;18.30;99.90;;;;;;5021743;28;20026;-74
2022/06/10 06:56:17;;;;;;;11.98;3.25;;;18.40;99.90;;;;;;5008635;28;20117;-76
2022/06/10 06:58:44;;;;;;;9.40;2.78;;;18.50;99.90;;;;;;5028286;28;20434;-75
2022/06/10 07:01:10;;;;;;;9.63;3.33;;;18.60;99.90;;;;;;5011252;28;20076;-75
2022/06/10 07:03:35;;;;;;;10.18;3.70;;;18.80;99.90;;;;;;5007226;28;20072;-74
2022/06/10 07:06:02;;;;;;;10.40;3.15;;;18.80;99.90;;;;;;5025516;28;20018;-74
2022/06/10 07:08:31;;;;;;;9.35;2.78;;;18.90;99.90;;;;;;5028333;28;20056;-75
2022/06/10 07:11:02;;;;;;;8.18;3.05;;;18.90;99.90;;;;;;5016139;28;20616;-74
2022/06/10 07:13:28;;;;;;;9.95;2.92;;;19.00;99.90;;;;;;5031386;28;20030;-75
2022/06/10 07:15:55;;;;;;;10.70;3.25;;;19.00;99.90;;;;;;5039298;28;20029;-74
2022/06/10 07:18:22;;;;;;;6.32;2.75;;;19.00;99.90;;;;;;5017860;28;20091;-74
2022/06/10 07:20:48;;;;;;;6.95;3.28;;;19.00;99.90;;;;;;5036112;28;20025;-75
2022/06/10 07:23:14;;;;;;;16.77;4.55;;;19.00;99.90;;;;;;5017385;28;20021;-74
2022/06/10 07:25:40;;;;;;;10.25;2.88;;;19.20;99.90;;;;;;5018185;28;20029;-75
2022/06/10 07:28:07;;;;;;;10.73;2.70;;;19.30;99.90;;;;;;5034963;28;20044;-75
2022/06/10 07:30:34;;;;;;;7.60;2.50;;;19.40;99.90;;;;;;5034270;28;20025;-75
2022/06/10 07:33:00;;;;;;;9.40;2.60;;;19.50;99.90;;;;;;5033534;28;20052;-74
2022/06/10 07:35:27;;;;;;;5.90;2.58;;;19.70;99.90;;;;;;5034968;28;20045;-75
2022/06/10 07:37:54;;;;;;;11.57;2.33;;;19.60;99.90;;;;;;5036401;28;20099;-75
2022/06/10 07:43:15;;;;;;;9.65;2.90;;;20.00;99.90;;;;;;5032204;28;20563;-75
2022/06/10 07:45:42;;;;;;;8.95;3.08;;;20.20;99.90;;;;;;5036605;28;20020;-75
2022/06/10 07:48:10;;;;;;;9.23;3.05;;;20.30;99.90;;;;;;5019900;28;20088;-75
2022/06/10 07:50:37;;;;;;;8.82;2.40;;;20.20;99.90;;;;;;5015153;28;20442;-75
2022/06/10 07:53:03;;;;;;;4.43;2.13;;;20.20;99.90;;;;;;5026330;28;20025;-74
2022/06/10 07:55:28;;;;;;;6.47;2.63;;;20.30;99.90;;;;;;5037772;28;20498;-75
2022/06/10 07:57:54;;;;;;;4.72;2.45;;;20.40;99.90;;;;;;5037686;28;20049;-75
2022/06/10 08:00:21;;;;;;;6.75;2.70;;;20.30;99.90;;;;;;5020210;28;20822;-75
2022/06/10 08:02:47;;;;;;;9.15;2.40;;;20.20;99.90;;;;;;5015423;28;20029;-74
2022/06/10 08:05:15;;;;;;;8.15;2.15;;;20.20;99.90;;;;;;5023216;28;20030;-75
2022/06/10 08:07:42;;;;;;;7.07;2.17;;;20.30;99.90;;;;;;5024597;28;20076;-75
2022/06/10 08:10:20;;;;;;;5.30;2.30;;;20.60;99.90;;;;;;5017046;28;20029;-75
2022/06/10 08:12:45;;;;;;;13.82;2.45;;;20.70;99.90;;;;;;5034226;28;20025;-75
2022/06/10 08:15:14;;;;;;;11.77;2.20;;;20.90;99.90;;;;;;5016784;28;20025;-75
2022/06/10 08:17:40;;;;;;;9.93;2.45;;;21.10;99.90;;;;;;5037026;28;20033;-75
2022/06/10 08:20:07;;;;;;;11.57;3.50;;;21.20;99.90;;;;;;5016943;28;20033;-75
2022/06/10 08:22:34;;;;;;;12.00;2.70;;;21.30;99.90;;;;;;5013993;28;20107;-75
2022/06/10 08:25:01;;;;;;;16.38;3.00;;;21.30;99.90;;;;;;5031565;28;20033;-75
2022/06/10 08:27:28;;;;;;;9.65;2.60;;;21.40;99.90;;;;;;5007560;28;20482;-75
2022/06/10 08:29:55;;;;;;;12.32;2.42;;;21.50;99.90;;;;;;5021794;28;20028;-75
2022/06/10 08:32:22;;;;;;;8.98;2.90;;;21.50;99.90;;;;;;5026952;28;20056;-75
2022/06/10 08:34:48;;;;;;;4.90;2.35;;;21.60;99.90;;;;;;5032122;28;20030;-75
2022/06/10 08:37:14;;;;;;;8.93;2.60;;;21.70;99.90;;;;;;5029356;28;20021;-75
2022/06/10 08:39:40;;;;;;;7.88;2.13;;;21.80;99.90;;;;;;5027474;28;20390;-76
2022/06/10 08:42:14;;;;;;;9.23;2.38;;;22.00;99.90;;;;;;5030267;28;20037;-75
2022/06/10 08:44:53;;;;;;;10.82;2.25;;;22.10;99.90;;;;;;5012349;28;20029;-76
2022/06/10 08:47:38;;;;;;;4.88;1.80;;;22.20;99.90;;;;;;5007588;28;20056;-75
2022/06/10 08:50:37;;;;;;;7.10;2.35;;;22.40;99.90;;;;;;5034308;28;20096;-75
2022/06/10 08:53:18;;;;;;;7.78;2.17;;;22.30;99.90;;;;;;5034948;28;20029;-75
2022/06/10 08:56:17;;;;;;;6.88;1.80;;;22.30;99.90;;;;;;5018541;28;20075;-75
2022/06/10 08:58:47;;;;;;;6.50;1.85;;;22.50;99.90;;;;;;5007654;28;20406;-74
2022/06/10 09:01:18;;;;;;;6.75;1.90;;;22.50;99.90;;;;;;5008658;28;20037;-75
2022/06/10 09:04:04;;;;;;;7.32;1.92;;;22.60;99.90;;;;;;5003768;28;20152;-75
2022/06/10 09:06:42;;;;;;;13.32;1.90;;;22.40;99.90;;;;;;5014680;28;20022;-75
2022/06/10 09:09:11;;;;;;;7.25;1.98;;;22.50;99.90;;;;;;5035689;28;20148;-75
2022/06/10 09:11:40;;;;;;;4.70;2.00;;;22.40;99.90;;;;;;5033659;28;20493;-75
2022/06/10 09:14:22;;;;;;;8.23;2.08;;;22.40;99.90;;;;;;5031658;28;20049;-75
2022/06/10 09:17:09;;;;;;;10.70;2.03;;;22.20;99.90;;;;;;5014387;28;20056;-75
2022/06/10 09:19:37;;;;;;;6.47;2.22;;;22.30;99.90;;;;;;5023340;28;20561;-74
2022/06/10 09:22:36;;;;;;;10.93;2.75;;;22.60;99.90;;;;;;5021229;28;20030;-75
2022/06/10 09:25:30;;;;;;;13.63;2.95;;;22.90;99.90;;;;;;5028083;28;20081;-75
2022/06/10 09:27:59;;;;;;;9.27;2.13;;;22.70;99.90;;;;;;5018041;28;20099;-75
2022/06/10 09:30:30;;;;;;;10.88;2.35;;;22.70;99.90;;;;;;5027611;28;20390;-75
2022/06/10 09:33:17;;;;;;;9.20;2.40;;;22.70;99.90;;;;;;5004866;28;20057;-75
2022/06/10 09:36:04;;;;;;;7.32;2.00;;;22.50;99.90;;;;;;5032245;28;20033;-75
2022/06/10 09:38:45;;;;;;;9.32;2.28;;;22.40;99.90;;;;;;5032133;28;20026;-75
2022/06/10 09:41:56;;;;;;;7.90;2.13;;;22.50;99.90;;;;;;5013660;28;20022;-74
2022/06/10 09:44:35;;;;;;;5.25;1.77;;;22.50;99.90;;;;;;5011780;28;20510;-75
2022/06/10 09:47:07;;;;;;;3.85;1.88;;;22.40;99.90;;;;;;5013776;28;20084;-74
2022/06/10 09:49:39;;;;;;;6.68;2.28;;;22.60;99.90;;;;;;5027103;28;20014;-75
2022/06/10 09:52:33;;;;;;;7.10;2.20;;;22.60;99.90;;;;;;5013401;28;20080;-74
2022/06/10 09:55:16;;;;;;;5.40;1.92;;;23.10;99.90;;;;;;5024113;28;20029;-75
2022/06/10 09:58:03;;;;;;;5.53;2.42;;;23.20;99.90;;;;;;5004528;28;20030;-75
2022/06/10 10:00:53;;;;;;;5.53;1.65;;;23.20;99.90;;;;;;5030749;28;20040;-75
2022/06/10 10:03:51;;;;;;;11.35;2.13;;;23.20;99.90;;;;;;5012037;28;20124;-75
2022/06/10 10:06:39;;;;;;;6.30;2.10;;;23.50;99.90;;;;;;5011151;28;20032;-75
2022/06/10 10:09:39;;;;;;;4.72;1.83;;;23.60;99.90;;;;;;5028605;28;20010;-75
2022/06/10 10:12:20;;;;;;;6.47;1.63;;;24.00;99.90;;;;;;5027914;28;20101;-75
2022/06/10 10:14:49;;;;;;;4.25;1.83;;;24.20;99.90;;;;;;5029085;28;20025;-75
2022/06/10 10:17:33;;;;;;;7.75;1.90;;;24.20;99.90;;;;;;5032719;28;20060;-75
2022/06/10 10:20:03;;;;;;;10.38;2.03;;;24.00;99.50;;;;;;5036511;28;20021;-76
2022/06/10 10:22:37;;;;;;;6.53;2.25;;;23.70;99.60;;;;;;5032904;28;20100;-75
2022/06/10 10:25:05;;;;;;;6.57;1.70;;;23.50;99.90;;;;;;5026346;28;20494;-76
2022/06/10 10:27:34;;;;;;;6.43;1.73;;;23.60;99.90;;;;;;5014141;28;20017;-75
2022/06/10 10:30:15;;;;;;;11.45;1.88;;;23.70;99.90;;;;;;5019042;28;20082;-76
2022/06/10 10:32:44;;;;;;;7.00;1.70;;;23.90;99.90;;;;;;5002821;28;20026;-76
2022/06/10 10:35:25;;;;;;;6.22;1.58;;;24.00;99.90;;;;;;5012794;28;20159;-75
2022/06/10 10:38:04;;;;;;;6.32;1.50;;;24.10;99.10;;;;;;5006919;28;20018;-75
2022/06/10 10:40:36;;;;;;;6.45;1.63;;;24.10;99.40;;;;;;5028330;28;20089;-75
2022/06/10 10:43:07;;;;;;;10.85;1.75;;;24.30;99.90;;;;;;5026360;28;20486;-75
2022/06/10 10:45:36;;;;;;;8.55;1.70;;;24.60;99.10;;;;;;5033514;28;20131;-75
2022/06/10 10:48:26;;;;;;;7.40;1.50;;;24.70;97.20;;;;;;5033065;28;20038;-75
2022/06/10 10:50:57;;;;;;;10.95;2.20;;;24.50;96.30;;;;;;5030679;28;20425;-75
2022/06/10 10:53:55;;;;;;;4.95;1.88;;;24.40;97.30;;;;;;5029751;28;20030;-75
2022/06/10 10:56:35;;;;;;;4.63;1.63;;;24.70;97.10;;;;;;5016151;28;20044;-75
2022/06/10 10:59:01;;;;;;;6.85;1.85;;;24.80;97.60;;;;;;5036634;28;20398;-76
2022/06/10 11:01:46;;;;;;;4.20;1.38;;;25.00;96.20;;;;;;5034942;28;20061;-74
2022/06/10 11:04:34;;;;;;;3.95;1.55;;;24.80;95.40;;;;;;5021015;28;20029;-75
2022/06/10 11:07:15;;;;;;;5.63;1.83;;;24.60;95.70;;;;;;5038701;28;20021;-75
2022/06/10 11:09:44;;;;;;;7.38;1.55;;;24.60;94.80;;;;;;5010495;28;20104;-75
2022/06/10 11:12:14;;;;;;;6.70;1.58;;;24.60;94.40;;;;;;5033817;28;20075;-75
2022/06/10 11:14:40;;;;;;;;;;;24.80;95.00;;;;;;5038262;28;20032;-74
2022/06/10 11:17:12;;;;;;;8.68;1.48;;;24.80;95.00;;;;;;5021273;28;20289;-75
2022/06/10 11:19:38;;;;;;;3.33;1.35;;;25.10;95.80;;;;;;5025982;28;20394;-75
2022/06/10 11:22:04;;;;;;;4.68;1.33;;;25.20;95.30;;;;;;5028020;28;20105;-75
2022/06/10 11:24:40;;;;;;;5.22;1.30;;;25.50;94.50;;;;;;5023941;28;20057;-75
2022/06/10 11:27:31;;;;;;;5.65;1.50;;;25.60;93.90;;;;;;5024232;28;20521;-76
2022/06/10 11:30:11;;;;;;;3.28;1.80;;;25.80;94.10;;;;;;5006427;28;20033;-76
2022/06/10 11:32:49;;;;;;;4.55;1.38;;;26.00;93.90;;;;;;5024728;28;20025;-76
2022/06/10 11:35:27;;;;;;;10.13;1.83;;;26.00;92.40;;;;;;5031254;28;20025;-75
2022/06/10 11:38:16;;;;;;;6.88;1.85;;;25.80;91.00;;;;;;5030556;28;20048;-76
2022/06/10 11:40:51;;;;;;;9.18;1.88;;;25.70;91.20;;;;;;5005630;28;20509;-76
2022/06/10 11:43:23;;;;;;;10.07;1.63;;;25.50;90.90;;;;;;5030487;28;20479;-76
2022/06/10 11:45:55;;;;;;;6.57;1.98;;;25.60;93.10;;;;;;5036787;28;20026;-77
2022/06/10 11:48:42;;;;;;;5.53;1.75;;;25.80;91.50;;;;;;5035105;28;20179;-76
2022/06/10 11:51:17;;;;;;;6.78;1.42;;;26.00;90.90;;;;;;5037235;28;20116;-76
2022/06/10 11:54:04;;;;;;;5.10;1.70;;;26.30;91.40;;;;;;5038390;28;20026;-75
2022/06/10 12:00:02;;;;;;;2.95;1.65;;;26.40;90.80;;;;;;5027911;28;20045;-76
2022/06/10 12:02:36;;;;;;;5.72;1.90;;;26.40;90.60;;;;;;5010045;28;20528;-76
2022/06/10 12:05:23;;;;;;;7.40;1.58;;;26.20;90.40;;;;;;5035573;28;20060;-75
2022/06/10 12:08:13;;;;;;;3.55;1.38;;;26.00;90.80;;;;;;5034615;28;20388;-75
2022/06/10 12:11:14;;;;;;;5.35;1.75;;;26.20;91.50;;;;;;5037704;28;20021;-76
2022/06/10 12:14:14;;;;;;;5.15;1.77;;;26.40;89.40;;;;;;4998499;28;20049;-77
2022/06/10 12:16:41;;;;;;;6.88;1.60;;;26.50;90.40;;;;;;5013251;28;20072;-75
2022/06/10 12:19:13;;;;;;;4.25;1.70;;;26.60;85.60;;;;;;5033287;28;20021;-76
2022/06/10 12:21:40;;;;;;;6.55;1.85;;;26.60;88.40;;;;;;5023150;28;20118;-76
2022/06/10 12:24:16;;;;;;;10.50;2.65;;;26.70;83.10;;;;;;5025631;28;20060;-77
2022/06/10 12:26:47;;;;;;;5.03;1.27;;;26.70;82.10;;;;;;5007873;28;20497;-76
2022/06/10 12:29:25;;;;;;;7.43;1.77;;;26.70;84.00;;;;;;5029712;28;20021;-76
2022/06/10 12:32:20;;;;;;;7.70;1.52;;;26.70;82.70;;;;;;5026827;28;20029;-75
2022/06/10 12:34:48;;;;;;;8.07;1.80;;;26.60;83.00;;;;;;5014359;28;20033;-76
2022/06/10 12:37:52;;;;;;;2.90;1.23;;;26.70;87.80;;;;;;5032550;28;20445;-76
2022/06/10 12:40:31;;;;;;;5.05;1.73;;;27.00;86.00;;;;;;5028925;28;20034;-76
2022/06/10 12:43:02;;;;;;;5.07;1.65;;;26.90;81.60;;;;;;5019116;28;20026;-76
2022/06/10 12:45:47;;;;;;;5.82;1.60;;;26.90;85.40;;;;;;5031993;28;20049;-76
2022/06/10 12:48:22;;;;;;;4.07;1.40;;;27.00;84.40;;;;;;5020169;28;20133;-76
2022/06/10 12:50:53;;;;;;;4.03;1.23;;;27.20;85.20;;;;;;5020478;28;20047;-76
2022/06/10 12:53:49;;;;;;;8.48;1.52;;;27.30;86.70;;;;;;5015622;28;20501;-76
2022/06/10 12:56:33;;;;;;;4.45;1.55;;;27.40;85.20;;;;;;5024077;28;20029;-75
2022/06/10 12:59:09;;;;;;;5.45;1.83;;;27.60;85.40;;;;;;5026352;28;20026;-76
2022/06/10 13:01:35;;;;;;;7.13;1.20;;;27.90;85.70;;;;;;5029698;28;20025;-76
2022/06/10 13:04:05;;;;;;;7.38;1.25;;;27.80;79.00;;;;;;5011259;28;20053;-76
2022/06/10 13:06:43;;;;;;;4.13;1.45;;;27.80;80.10;;;;;;5014212;28;20032;-74
2022/06/10 13:09:12;;;;;;;6.47;1.10;;;27.60;77.30;;;;;;5032259;28;20457;-75
2022/06/10 13:11:49;;;;;;;6.22;1.58;;;27.60;79.00;;;;;;5009944;28;20119;-75
2022/06/10 13:14:43;;;;;;;5.18;1.30;;;27.70;76.70;;;;;;5036413;28;20498;-76
2022/06/10 13:17:27;;;;;;;4.32;1.40;;;27.80;79.00;;;;;;5034918;28;20048;-75
2022/06/10 13:19:56;;;;;;;2.97;1.30;;;28.20;79.40;;;;;;5022806;28;20517;-75
2022/06/10 13:22:25;;;;;;;3.83;1.23;;;28.40;76.60;;;;;;5029216;28;20022;-75
2022/06/10 13:24:53;;;;;;;7.70;1.05;;;28.50;78.70;;;;;;5027694;28;20026;-76
2022/06/10 13:27:24;;;;;;;3.97;1.30;;;28.30;76.70;;;;;;5032508;28;20052;-76